SMJP

Details ICAO SMJP (PBM)
Name Paramaribo Johan A Pengel Intl
Region Suriname
Timezone America/Paramaribo (UTC-3.0)
Plans Departing 127
Arriving 148
Stats Elevation 59 ft / 18 m (AMSL)
Location 5.452831° -55.187783°
Runways 1
Magnetic Variation 17.548° W
Sunrise 2017-12-18 09:44:36 UTC / 2017-12-18 06:44:36 Local
Sunset 2017-12-18 21:32:58 UTC / 2017-12-18 18:32:58 Local
Advertisement - Login to hide

Runways

ID Width Length Bearing (true) Bearing (mag) Surface Threshold Offset Overrun Length
11 148 ft / 45 m 11,415 ft / 3,479 m 89.66° 107.21° Concrete 0 ft / 0 m 164 ft / 50 m
29 148 ft / 45 m 11,415 ft / 3,479 m 269.67° 287.22° Concrete 0 ft / 0 m 197 ft / 60 m

Approach Navaids

Runway Type Ident Frequency Range Bearing (true) Bearing (mag) Slope Elevation
11 Localiser IZAN 109.90 MHz 18 nm / 33 km 89.67° 107.21° - 59 ft / 18 m (AMSL)
11 Glidescope IZAN 109.90 MHz 10 nm / 19 km 89.67° 107.21° 3.00° 56 ft / 17 m (AMSL)

Map

Weather


0- 5 10 15 20 25 30 35+ Temperature / ° C

Clouds and Precipitation
Forecast for 2017-12-18 12:00 UTC. Updated a few seconds ago

Ground ~20,000 ft ~40,000 ft Winds

METAR

SMJP 180700Z VRB01KT CAVOK 23/23 Q1011 NOSIG

TAF

Not found

Frequencies

Ground 121.90 MHz GND
Approach 120.00 MHz PENGEL APP
Tower 118.50 MHz PENGEL TWR
Warning: Do not use this data for real-world aviation or navigation. No guarantee of current accuracy is given.